Time;durP1;ratioP1;P1;durP2;ratioP2;P2;SDS_P1;SDS_P2;PMS_P1;PMS_P2;Temp;Humidity;BMP_temperature;BMP_pressure;BME280_temperature;BME280_humidity;BME280_pressure;Samples;Min_cycle;Max_cycle;Signal;HPM_P1;HPM_P2
2023/03/28 00:01:07;;;;;;;1.45;1.30;;;1.10;99.90;;;;;;4992885;28;20231;-69
2023/03/28 00:03:38;;;;;;;4.90;2.22;;;1.20;99.90;;;;;;4992950;28;20203;-70
2023/03/28 00:06:08;;;;;;;1.58;1.48;;;1.10;99.90;;;;;;4992613;28;20203;-70
2023/03/28 00:08:38;;;;;;;2.30;1.92;;;1.20;99.90;;;;;;4992405;28;20199;-70
2023/03/28 00:11:06;;;;;;;2.65;1.92;;;1.20;99.90;;;;;;4992660;28;20725;-70
2023/03/28 00:13:33;;;;;;;3.20;2.13;;;1.20;99.90;;;;;;4992910;28;20210;-70
2023/03/28 00:16:06;;;;;;;3.17;2.67;;;1.20;99.90;;;;;;4991746;28;20203;-70
2023/03/28 00:18:36;;;;;;;2.80;1.92;;;1.10;99.90;;;;;;4992343;28;20203;-70
2023/03/28 00:21:06;;;;;;;2.30;2.00;;;1.10;99.90;;;;;;4992112;28;20223;-70
2023/03/28 00:23:34;;;;;;;2.30;1.75;;;1.10;99.90;;;;;;4992475;28;20203;-70
2023/03/28 00:26:07;;;;;;;1.85;1.75;;;1.00;99.90;;;;;;4991966;28;20203;-70
2023/03/28 00:28:34;;;;;;;2.15;1.92;;;1.10;99.90;;;;;;4992097;28;20195;-70
2023/03/28 00:31:03;;;;;;;3.55;2.00;;;1.00;99.90;;;;;;4991688;28;20247;-70
2023/03/28 00:33:29;;;;;;;2.80;2.03;;;1.00;99.90;;;;;;4992193;28;20232;-70
2023/03/28 00:35:56;;;;;;;2.40;2.10;;;1.00;99.90;;;;;;4991618;28;20203;-70
2023/03/28 00:38:23;;;;;;;2.42;1.70;;;1.00;99.90;;;;;;4991814;28;20203;-70
2023/03/28 00:40:54;;;;;;;4.07;1.95;;;1.00;99.90;;;;;;4991623;28;20226;-70
2023/03/28 00:43:40;;;;;;;2.95;2.03;;;1.00;99.90;;;;;;4992069;28;20230;-70
2023/03/28 00:46:11;;;;;;;2.15;1.95;;;0.90;99.90;;;;;;4991785;28;20215;-70
2023/03/28 00:48:39;;;;;;;3.17;2.15;;;0.90;99.90;;;;;;4991505;28;20199;-70
2023/03/28 00:51:07;;;;;;;2.20;1.88;;;0.90;99.90;;;;;;4991487;28;20289;-70
2023/03/28 00:53:35;;;;;;;2.10;1.88;;;0.80;99.90;;;;;;4991814;28;20195;-70
2023/03/28 00:56:05;;;;;;;1.98;1.77;;;0.80;99.90;;;;;;4991461;28;20203;-70
2023/03/28 00:58:35;;;;;;;2.45;1.85;;;0.80;99.90;;;;;;4991519;28;20205;-70
2023/03/28 01:01:04;;;;;;;1.38;1.27;;;0.70;99.90;;;;;;4991041;28;20227;-70
2023/03/28 01:03:33;;;;;;;3.65;1.55;;;0.70;99.90;;;;;;4991500;28;20714;-69
2023/03/28 01:06:02;;;;;;;2.05;1.58;;;0.70;99.90;;;;;;4991064;28;20708;-70
2023/03/28 01:08:32;;;;;;;3.78;2.03;;;0.70;99.90;;;;;;4991119;28;20242;-70
2023/03/28 01:10:59;;;;;;;1.67;1.48;;;0.70;99.90;;;;;;4990648;28;20318;-70
2023/03/28 01:13:30;;;;;;;3.88;1.60;;;0.60;99.90;;;;;;4991137;28;20205;-69
2023/03/28 01:15:57;;;;;;;1.40;1.30;;;0.60;99.90;;;;;;4990779;28;20246;-70
2023/03/28 01:18:26;;;;;;;1.55;1.45;;;0.60;99.90;;;;;;4990676;28;20210;-70
2023/03/28 01:21:23;;;;;;;2.33;1.58;;;0.60;99.90;;;;;;4990428;28;20269;-70
2023/03/28 01:24:17;;;;;;;2.17;1.75;;;0.70;99.90;;;;;;4988933;28;20199;-70
2023/03/28 01:26:54;;;;;;;2.08;1.85;;;0.80;99.90;;;;;;4991109;28;20207;-71
2023/03/28 01:30:06;;;;;;;2.00;1.80;;;0.80;99.90;;;;;;4976375;28;20681;-71
2023/03/28 01:33:20;;;;;;;2.65;1.58;;;0.90;99.90;;;;;;4990905;28;20611;-70
2023/03/28 01:36:15;;;;;;;4.00;1.75;;;0.90;99.90;;;;;;4990460;28;20214;-70
2023/03/28 01:38:48;;;;;;;2.30;1.38;;;0.80;99.90;;;;;;4981012;28;20249;-70
2023/03/28 01:41:23;;;;;;;3.67;1.63;;;0.80;99.90;;;;;;4990365;28;20227;-70
2023/03/28 01:43:56;;;;;;;1.90;1.65;;;0.80;99.90;;;;;;4990740;28;20202;-70
2023/03/28 01:46:28;;;;;;;1.95;1.67;;;0.80;99.90;;;;;;4990576;28;20667;-70
2023/03/28 01:49:03;;;;;;;2.45;1.90;;;0.70;99.90;;;;;;4990065;28;20202;-70
2023/03/28 01:51:41;;;;;;;2.60;1.60;;;0.70;99.90;;;;;;4991198;28;20195;-70
2023/03/28 01:54:16;;;;;;;2.10;1.90;;;0.70;99.90;;;;;;4990621;28;20206;-70
2023/03/28 01:56:49;;;;;;;2.33;1.30;;;0.70;99.90;;;;;;4990447;28;20206;-70
2023/03/28 01:59:21;;;;;;;4.57;2.25;;;0.60;99.90;;;;;;4990207;28;20203;-70
2023/03/28 02:01:55;;;;;;;2.35;1.92;;;0.60;99.90;;;;;;4989536;28;20227;-70
2023/03/28 02:04:24;;;;;;;3.80;2.05;;;0.50;99.90;;;;;;4990706;28;20207;-70
2023/03/28 02:06:53;;;;;;;4.10;2.30;;;0.50;99.90;;;;;;4990244;28;20206;-70
2023/03/28 02:09:24;;;;;;;2.65;1.95;;;0.60;99.90;;;;;;4975123;28;20206;-70
2023/03/28 02:11:56;;;;;;;2.50;2.15;;;0.50;99.90;;;;;;4990378;28;20205;-70
2023/03/28 02:14:27;;;;;;;2.47;2.28;;;0.50;99.90;;;;;;4989852;28;20203;-70
2023/03/28 02:17:00;;;;;;;1.70;1.55;;;0.50;99.90;;;;;;4990526;28;20203;-70
2023/03/28 02:19:28;;;;;;;2.85;2.05;;;0.40;99.90;;;;;;4977232;28;20219;-70
2023/03/28 02:22:00;;;;;;;1.73;1.55;;;0.40;99.90;;;;;;4990573;28;20640;-70
2023/03/28 02:24:28;;;;;;;2.13;1.50;;;0.50;99.90;;;;;;4991031;28;20594;-70
2023/03/28 02:26:56;;;;;;;1.85;1.60;;;0.40;99.90;;;;;;4990430;28;20552;-70
2023/03/28 02:29:22;;;;;;;4.35;1.65;;;0.40;99.90;;;;;;4990982;28;20265;-70
2023/03/28 02:31:50;;;;;;;3.92;2.20;;;0.40;99.90;;;;;;4994057;28;20681;-70
2023/03/28 02:34:16;;;;;;;2.47;2.28;;;0.40;99.90;;;;;;4994749;28;20730;-70
2023/03/28 02:36:51;;;;;;;2.60;1.98;;;0.40;99.90;;;;;;4994627;28;20666;-70
2023/03/28 02:39:47;;;;;;;3.67;2.67;;;0.30;99.90;;;;;;4994487;28;20206;-70
2023/03/28 02:42:46;;;;;;;4.43;3.58;;;0.40;99.90;;;;;;4994189;28;20251;-70
2023/03/28 02:45:24;;;;;;;2.50;2.30;;;0.40;99.90;;;;;;4983233;28;20581;-70
2023/03/28 02:47:59;;;;;;;3.65;2.45;;;0.40;99.90;;;;;;4994098;28;20214;-70
2023/03/28 02:50:34;;;;;;;3.15;1.70;;;0.30;99.90;;;;;;4979767;28;20226;-70
2023/03/28 02:53:07;;;;;;;4.55;2.58;;;0.30;99.90;;;;;;4993423;28;20560;-70
2023/03/28 02:55:43;;;;;;;2.88;1.80;;;0.30;99.90;;;;;;4993803;28;20549;-70
2023/03/28 02:58:14;;;;;;;2.65;2.35;;;0.30;99.90;;;;;;4993659;28;20576;-70
2023/03/28 03:00:41;;;;;;;3.25;2.35;;;0.30;99.90;;;;;;4993725;28;20563;-70
2023/03/28 03:03:10;;;;;;;2.22;1.75;;;0.30;99.90;;;;;;4993721;28;20223;-69
2023/03/28 03:05:37;;;;;;;3.22;2.50;;;0.30;99.90;;;;;;4993816;28;20231;-70
2023/03/28 03:08:04;;;;;;;3.40;1.90;;;0.30;99.90;;;;;;4993463;28;20219;-70
2023/03/28 03:10:31;;;;;;;1.90;1.70;;;0.30;99.90;;;;;;4993567;28;20230;-70
2023/03/28 03:12:59;;;;;;;3.92;2.70;;;0.30;99.90;;;;;;4993174;28;20210;-70
2023/03/28 03:15:29;;;;;;;4.35;2.38;;;0.30;99.90;;;;;;4993742;28;20195;-70
2023/03/28 03:17:56;;;;;;;3.58;2.05;;;0.30;99.90;;;;;;4993196;28;20195;-70
2023/03/28 03:20:25;;;;;;;4.90;2.33;;;0.30;99.90;;;;;;4993711;28;20230;-70
2023/03/28 03:22:51;;;;;;;6.45;2.80;;;0.20;99.90;;;;;;4993333;28;20246;-70
2023/03/28 03:25:18;;;;;;;3.60;2.42;;;0.20;99.90;;;;;;4993063;28;20215;-70
2023/03/28 03:27:45;;;;;;;2.75;1.92;;;0.10;99.90;;;;;;4993028;28;20199;-70
2023/03/28 03:30:13;;;;;;;3.40;2.33;;;0.10;99.90;;;;;;4993301;28;20257;-70
2023/03/28 03:32:42;;;;;;;2.50;1.80;;;0.10;99.90;;;;;;4993242;28;20195;-70
2023/03/28 03:35:10;;;;;;;5.90;2.90;;;0.00;99.90;;;;;;4979706;28;20205;-70
2023/03/28 03:37:37;;;;;;;3.28;2.20;;;0.00;99.90;;;;;;4957118;28;20251;-70
2023/03/28 03:40:04;;;;;;;2.40;2.20;;;-0.10;99.90;;;;;;4957920;28;20235;-70
2023/03/28 03:42:31;;;;;;;2.40;2.20;;;-0.10;99.90;;;;;;4954941;28;20252;-69
2023/03/28 03:44:58;;;;;;;2.50;2.30;;;-0.20;99.90;;;;;;4954421;28;20212;-70
2023/03/28 03:47:26;;;;;;;3.50;2.58;;;-0.30;99.90;;;;;;4962094;28;20711;-70
2023/03/28 03:49:53;;;;;;;2.88;2.05;;;-0.30;99.90;;;;;;4961219;28;20223;-70
2023/03/28 03:52:19;;;;;;;2.15;1.80;;;-0.40;99.90;;;;;;4956337;28;20207;-70
2023/03/28 03:54:46;;;;;;;2.72;1.77;;;-0.50;99.90;;;;;;4954813;28;20255;-69
2023/03/28 03:57:13;;;;;;;2.10;1.45;;;-0.50;99.90;;;;;;4957460;28;20201;-68
2023/03/28 03:59:39;;;;;;;1.75;1.65;;;-0.50;99.90;;;;;;4961368;28;20738;-69
2023/03/28 04:02:06;;;;;;;3.47;2.38;;;-0.50;99.90;;;;;;4956796;28;20219;-69
2023/03/28 04:04:35;;;;;;;2.15;1.95;;;-0.60;99.90;;;;;;4955633;28;20676;-69
2023/03/28 04:07:02;;;;;;;3.75;2.13;;;-0.60;99.90;;;;;;4955403;28;20204;-69
2023/03/28 04:09:29;;;;;;;11.43;2.50;;;-0.70;99.90;;;;;;4955218;28;20221;-69
2023/03/28 04:11:56;;;;;;;2.15;1.80;;;-0.70;99.90;;;;;;4968455;28;20207;-69
2023/03/28 04:14:23;;;;;;;3.88;1.75;;;-0.70;99.90;;;;;;4992487;28;20585;-69
2023/03/28 04:16:50;;;;;;;2.50;2.30;;;-0.70;99.90;;;;;;4988847;28;20206;-71
2023/03/28 04:19:17;;;;;;;2.58;1.90;;;-0.80;99.90;;;;;;4991081;28;20696;-71
2023/03/28 04:21:47;;;;;;;2.72;2.05;;;-0.80;99.90;;;;;;4990375;28;20724;-71
2023/03/28 04:24:15;;;;;;;6.28;3.05;;;-0.80;99.90;;;;;;4991641;28;20722;-71
2023/03/28 04:26:42;;;;;;;2.25;1.80;;;-0.90;99.90;;;;;;4986709;28;20294;-69
2023/03/28 04:29:10;;;;;;;2.10;1.90;;;-0.90;99.90;;;;;;4991984;28;20207;-69
2023/03/28 04:31:38;;;;;;;2.50;1.75;;;-0.90;99.90;;;;;;5017435;22;20226;-72
2023/03/28 04:34:05;;;;;;;2.13;1.60;;;-0.90;99.90;;;;;;5014850;28;20753;-73
2023/03/28 04:36:32;;;;;;;2.47;1.60;;;-0.90;99.90;;;;;;5026243;28;20197;-72
2023/03/28 04:39:01;;;;;;;1.70;1.52;;;-0.90;99.90;;;;;;5019217;28;20210;-72
2023/03/28 04:41:28;;;;;;;2.30;2.10;;;-0.90;99.90;;;;;;5016729;28;20281;-73
2023/03/28 04:43:55;;;;;;;3.05;1.95;;;-0.90;99.90;;;;;;5016062;28;20225;-73
2023/03/28 04:46:21;;;;;;;4.32;3.05;;;-0.90;99.90;;;;;;5002096;28;20204;-73
2023/03/28 04:48:48;;;;;;;6.32;2.30;;;-0.90;99.90;;;;;;5016953;28;20203;-73
2023/03/28 04:51:15;;;;;;;3.83;3.42;;;-0.90;99.90;;;;;;4991378;28;20231;-73
2023/03/28 04:53:41;;;;;;;6.15;2.08;;;-0.90;99.90;;;;;;5013975;28;20210;-73
2023/03/28 04:56:12;;;;;;;2.72;2.08;;;-0.90;99.90;;;;;;5013839;28;20209;-72
2023/03/28 04:58:40;;;;;;;2.60;2.13;;;-0.90;99.90;;;;;;5000542;28;20195;-72
2023/03/28 05:01:09;;;;;;;1.88;1.77;;;-0.90;99.90;;;;;;5012377;28;20230;-73
2023/03/28 05:03:36;;;;;;;3.15;2.40;;;-1.00;99.90;;;;;;5012754;28;20253;-73
2023/03/28 05:06:05;;;;;;;3.40;2.70;;;-1.00;99.90;;;;;;5015181;28;20207;-73
2023/03/28 05:08:32;;;;;;;3.47;2.58;;;-1.00;99.90;;;;;;5006061;28;20202;-73
2023/03/28 05:10:59;;;;;;;1.92;1.80;;;-1.00;99.90;;;;;;5013401;28;20226;-73
2023/03/28 05:13:27;;;;;;;4.10;2.28;;;-1.00;99.90;;;;;;5012994;28;20195;-73
2023/03/28 05:15:53;;;;;;;2.88;2.30;;;-1.10;99.90;;;;;;5013537;28;20202;-73
2023/03/28 05:18:20;;;;;;;3.70;2.63;;;-1.10;99.90;;;;;;5014872;28;20203;-74
2023/03/28 05:20:47;;;;;;;4.15;3.05;;;-1.10;99.90;;;;;;5014003;28;20218;-71
2023/03/28 05:23:16;;;;;;;6.25;3.33;;;-1.10;99.90;;;;;;5012582;28;20233;-71
2023/03/28 05:25:43;;;;;;;2.30;2.10;;;-1.10;99.90;;;;;;5015550;28;20203;-73
2023/03/28 05:28:10;;;;;;;5.70;3.25;;;-1.10;99.90;;;;;;5013997;28;20206;-73
2023/03/28 05:30:39;;;;;;;2.63;2.40;;;-1.10;99.90;;;;;;5013517;28;20650;-74
2023/03/28 05:33:05;;;;;;;3.85;3.20;;;-1.10;99.90;;;;;;5013865;28;20662;-73
2023/03/28 05:35:32;;;;;;;6.38;2.90;;;-1.20;99.90;;;;;;5012761;28;20239;-74
2023/03/28 05:37:59;;;;;;;3.20;2.90;;;-1.20;99.90;;;;;;5014133;28;20230;-72
2023/03/28 05:40:26;;;;;;;3.28;2.97;;;-1.10;99.90;;;;;;5015737;28;20641;-72
2023/03/28 05:42:53;;;;;;;2.65;2.10;;;-1.10;99.90;;;;;;5016693;28;20221;-71
2023/03/28 05:45:19;;;;;;;2.50;2.10;;;-1.10;99.90;;;;;;5018863;28;20209;-72
2023/03/28 05:47:50;;;;;;;5.38;2.90;;;-1.10;99.90;;;;;;5014922;28;20195;-74
2023/03/28 05:50:17;;;;;;;2.53;2.20;;;-1.00;99.90;;;;;;5014620;28;20230;-75
2023/03/28 05:52:44;;;;;;;3.97;2.90;;;-1.00;99.90;;;;;;5016104;28;20198;-74
2023/03/28 05:55:10;;;;;;;3.55;3.10;;;-1.00;99.90;;;;;;5016432;28;20672;-74
2023/03/28 05:57:37;;;;;;;3.22;1.95;;;-0.90;99.90;;;;;;5016276;28;20202;-75
2023/03/28 06:00:12;;;;;;;2.80;2.60;;;-0.90;99.90;;;;;;5016660;28;20231;-74
2023/03/28 06:02:41;;;;;;;2.88;2.58;;;-0.80;99.90;;;;;;5015328;28;20668;-74
2023/03/28 06:05:10;;;;;;;3.97;2.13;;;-0.80;99.90;;;;;;5014893;28;20214;-74
2023/03/28 06:07:38;;;;;;;4.03;2.53;;;-0.70;99.90;;;;;;5018346;28;20265;-74
2023/03/28 06:10:07;;;;;;;3.35;2.25;;;-0.70;99.90;;;;;;5010188;28;20261;-75
2023/03/28 06:12:33;;;;;;;5.45;2.67;;;-0.60;99.90;;;;;;5016524;28;20202;-73
2023/03/28 06:15:00;;;;;;;4.30;2.72;;;-0.50;99.90;;;;;;5016780;28;20213;-73
2023/03/28 06:17:27;;;;;;;3.85;2.60;;;-0.40;99.90;;;;;;5017713;28;20209;-73
2023/03/28 06:19:54;;;;;;;3.17;2.22;;;-0.30;99.90;;;;;;5017130;28;20218;-74
2023/03/28 06:22:22;;;;;;;2.17;1.98;;;-0.20;99.90;;;;;;5016285;28;20654;-74
2023/03/28 06:24:48;;;;;;;2.45;2.10;;;0.00;99.90;;;;;;5015989;28;20221;-73
2023/03/28 06:27:15;;;;;;;4.85;2.40;;;0.00;99.90;;;;;;5016347;28;20673;-74
2023/03/28 06:29:42;;;;;;;4.18;2.55;;;0.20;99.90;;;;;;5017353;28;20214;-73
2023/03/28 06:32:09;;;;;;;2.80;2.20;;;0.20;99.90;;;;;;5015480;28;20221;-75
2023/03/28 06:34:36;;;;;;;3.13;2.25;;;0.30;99.90;;;;;;5015710;28;20669;-75
2023/03/28 06:37:02;;;;;;;2.60;2.40;;;0.40;99.90;;;;;;5015000;28;20209;-75
2023/03/28 06:39:31;;;;;;;4.07;2.50;;;0.50;99.90;;;;;;5015365;28;20222;-75
2023/03/28 06:41:58;;;;;;;2.70;1.85;;;0.60;99.90;;;;;;5015563;28;20493;-75
2023/03/28 06:44:25;;;;;;;2.35;2.00;;;0.70;99.90;;;;;;5015431;28;20222;-74
2023/03/28 06:46:52;;;;;;;6.40;2.58;;;0.80;99.90;;;;;;5016426;28;20198;-73
2023/03/28 06:49:19;;;;;;;2.03;1.90;;;1.00;99.90;;;;;;5016107;28;20206;-73
2023/03/28 06:51:45;;;;;;;5.93;2.30;;;1.10;99.90;;;;;;5016070;28;20290;-73
2023/03/28 06:54:12;;;;;;;5.15;2.85;;;1.20;99.90;;;;;;5016037;28;20195;-74
2023/03/28 06:56:40;;;;;;;3.53;2.50;;;1.30;99.90;;;;;;5014619;28;20285;-73
2023/03/28 06:59:07;;;;;;;2.67;2.40;;;1.40;99.90;;;;;;5015184;28;20206;-76
2023/03/28 07:01:33;;;;;;;6.15;3.05;;;1.50;99.90;;;;;;5015709;28;20202;-73
2023/03/28 07:04:01;;;;;;;3.42;1.90;;;1.70;99.90;;;;;;5016009;28;20218;-74
2023/03/28 07:06:28;;;;;;;5.63;2.10;;;1.80;99.90;;;;;;5015621;28;20206;-74
2023/03/28 07:08:57;;;;;;;2.78;1.60;;;1.90;99.90;;;;;;5015425;28;20653;-73
2023/03/28 07:11:24;;;;;;;4.20;2.30;;;2.00;99.90;;;;;;5015705;28;20756;-74
2023/03/28 07:13:52;;;;;;;5.35;2.53;;;2.20;99.90;;;;;;5016506;28;20194;-72
2023/03/28 07:16:19;;;;;;;4.68;2.58;;;2.40;99.90;;;;;;5017314;28;20678;-73
2023/03/28 07:18:46;;;;;;;5.18;2.28;;;2.50;99.90;;;;;;5016467;28;20225;-73
2023/03/28 07:21:15;;;;;;;3.35;2.63;;;2.60;99.90;;;;;;5015992;28;20709;-73
2023/03/28 07:23:43;;;;;;;3.45;2.00;;;2.70;99.90;;;;;;5017843;28;20214;-73
2023/03/28 07:26:10;;;;;;;2.30;1.98;;;2.90;99.90;;;;;;5016439;28;20687;-73
2023/03/28 07:28:37;;;;;;;4.88;1.77;;;3.20;99.90;;;;;;5000279;28;20198;-74
2023/03/28 07:31:06;;;;;;;3.47;2.40;;;3.60;99.90;;;;;;5015652;28;20234;-75
2023/03/28 07:33:34;;;;;;;1.90;1.70;;;4.20;99.90;;;;;;5018307;28;20206;-75
2023/03/28 07:36:00;;;;;;;4.93;2.55;;;4.70;99.90;;;;;;5013957;28;20217;-75
2023/03/28 07:38:27;;;;;;;2.42;1.83;;;5.30;99.90;;;;;;5009759;28;20203;-75
2023/03/28 07:40:54;;;;;;;2.47;1.70;;;5.80;99.90;;;;;;5006431;28;20764;-76
2023/03/28 07:43:20;;;;;;;1.73;1.50;;;6.30;99.90;;;;;;5007267;28;20219;-74
2023/03/28 07:45:47;;;;;;;4.57;1.63;;;6.70;99.90;;;;;;5014597;28;20293;-75
2023/03/28 07:48:15;;;;;;;2.53;1.60;;;7.20;99.90;;;;;;5013138;28;20206;-76
2023/03/28 07:50:43;;;;;;;2.75;1.75;;;7.60;99.90;;;;;;5013566;28;20225;-73
2023/03/28 07:53:10;;;;;;;3.03;2.10;;;8.00;99.90;;;;;;5013947;28;20237;-75
2023/03/28 07:55:37;;;;;;;2.10;1.50;;;8.60;99.90;;;;;;5013598;28;20289;-73
2023/03/28 07:58:06;;;;;;;3.40;1.75;;;9.20;99.40;;;;;;5012423;28;20234;-75
2023/03/28 08:00:33;;;;;;;4.00;1.90;;;9.60;96.60;;;;;;5014639;28;20253;-73
2023/03/28 08:03:00;;;;;;;7.60;1.90;;;9.70;96.40;;;;;;5015537;28;20253;-73
2023/03/28 08:05:32;;;;;;;2.75;1.80;;;10.00;96.10;;;;;;5014316;28;20199;-72
2023/03/28 08:08:00;;;;;;;1.60;1.45;;;9.90;96.30;;;;;;5013702;28;20211;-72
2023/03/28 08:10:26;;;;;;;3.42;1.48;;;9.70;94.00;;;;;;5013532;28;20226;-72
2023/03/28 08:12:54;;;;;;;3.58;1.60;;;9.20;95.80;;;;;;4979987;28;20275;-72
2023/03/28 08:15:21;;;;;;;1.42;1.33;;;9.40;94.00;;;;;;5009772;28;20506;-73
2023/03/28 08:17:48;;;;;;;1.38;1.25;;;9.80;94.10;;;;;;5014031;28;20198;-73
2023/03/28 08:20:16;;;;;;;2.10;1.67;;;10.40;93.40;;;;;;5013773;28;20238;-73
2023/03/28 08:22:45;;;;;;;2.95;1.55;;;11.20;92.40;;;;;;5012238;28;20205;-73
2023/03/28 08:25:12;;;;;;;2.63;1.50;;;11.60;91.70;;;;;;5015438;28;20222;-72
2023/03/28 08:27:39;;;;;;;2.40;1.90;;;12.10;91.00;;;;;;5013838;28;20203;-75
2023/03/28 08:30:08;;;;;;;5.50;2.67;;;12.80;90.20;;;;;;5015511;28;20272;-73
2023/03/28 08:32:35;;;;;;;4.90;2.08;;;13.30;90.00;;;;;;5015538;28;20763;-74
2023/03/28 08:35:03;;;;;;;4.40;1.70;;;13.80;86.40;;;;;;5008471;28;20711;-75
2023/03/28 08:37:30;;;;;;;2.20;2.00;;;14.20;85.50;;;;;;5013471;28;20253;-75
2023/03/28 08:39:59;;;;;;;3.58;2.08;;;14.60;85.40;;;;;;5013522;28;20657;-72
2023/03/28 08:42:45;;;;;;;3.20;2.00;;;14.50;85.00;;;;;;5013040;28;20677;-73
2023/03/28 08:45:33;;;;;;;2.00;1.80;;;14.30;85.10;;;;;;5014933;28;20481;-75
2023/03/28 08:48:12;;;;;;;2.20;1.80;;;15.00;84.40;;;;;;5002063;28;20469;-75
2023/03/28 08:50:43;;;;;;;2.47;2.00;;;15.60;83.10;;;;;;5013809;28;20488;-73
2023/03/28 08:53:18;;;;;;;3.00;2.10;;;16.00;82.10;;;;;;5005267;28;20471;-78
2023/03/28 08:55:48;;;;;;;3.00;1.93;;;16.30;81.30;;;;;;4990841;28;20460;-72
2023/03/28 08:58:20;;;;;;;2.70;2.10;;;16.50;82.40;;;;;;4993043;28;20864;-74
2023/03/28 09:00:48;;;;;;;2.80;2.60;;;16.00;79.30;;;;;;4984378;28;21000;-73
2023/03/28 09:03:18;;;;;;;2.30;2.07;;;15.00;80.50;;;;;;4986026;28;20900;-73
2023/03/28 09:05:48;;;;;;;3.57;2.30;;;14.70;82.70;;;;;;4986799;28;20504;-73
2023/03/28 09:08:27;;;;;;;2.00;1.67;;;15.00;79.80;;;;;;4986797;28;20531;-72
2023/03/28 09:11:02;;;;;;;2.07;1.87;;;14.10;80.00;;;;;;4995734;28;20484;-72
2023/03/28 09:13:39;;;;;;;3.10;1.70;;;13.10;78.50;;;;;;4992698;28;20469;-71
2023/03/28 09:16:25;;;;;;;2.53;1.73;;;12.20;81.60;;;;;;4991512;28;20502;-71
2023/03/28 09:19:16;;;;;;;2.25;1.80;;;11.70;83.10;;;;;;4983386;28;20457;-72
2023/03/28 09:21:54;;;;;;;2.67;2.47;;;11.30;84.00;;;;;;4979610;28;20198;-72
2023/03/28 09:24:46;;;;;;;4.82;1.95;;;11.10;84.20;;;;;;4992115;28;20652;-71
2023/03/28 09:27:24;;;;;;;1.80;1.30;;;12.20;86.70;;;;;;4984232;28;20676;-72
2023/03/28 09:29:54;;;;;;;1.45;1.25;;;13.60;78.60;;;;;;4989068;28;20481;-72
2023/03/28 09:32:27;;;;;;;1.75;1.38;;;14.10;76.10;;;;;;4982519;28;20290;-74
2023/03/28 09:34:54;;;;;;;1.95;1.60;;;14.30;74.80;;;;;;4990123;28;20245;-75
2023/03/28 09:37:30;;;;;;;1.93;1.27;;;14.30;74.90;;;;;;4983777;28;20211;-74
2023/03/28 09:40:01;;;;;;;1.75;1.65;;;14.20;70.20;;;;;;4984148;28;20484;-74
2023/03/28 09:42:38;;;;;;;3.05;1.83;;;12.40;72.90;;;;;;4992166;28;20195;-74
2023/03/28 09:45:17;;;;;;;2.85;1.88;;;11.10;76.90;;;;;;4982449;28;20242;-74
2023/03/28 09:47:47;;;;;;;3.15;1.60;;;11.20;82.10;;;;;;4987146;28;20201;-74
2023/03/28 09:50:16;;;;;;;4.65;1.90;;;12.20;80.40;;;;;;4990080;28;20219;-74
2023/03/28 09:52:43;;;;;;;1.85;1.30;;;12.20;78.60;;;;;;4987488;28;20204;-73
2023/03/28 09:55:17;;;;;;;1.60;1.20;;;11.80;77.40;;;;;;4985414;28;20663;-73
2023/03/28 09:58:03;;;;;;;3.55;1.80;;;11.20;77.80;;;;;;4992520;28;20719;-74
2023/03/28 10:00:35;;;;;;;1.90;1.27;;;10.90;79.00;;;;;;4984703;28;20302;-74
2023/03/28 10:03:02;;;;;;;2.45;1.60;;;11.60;80.80;;;;;;4982544;28;20238;-74
2023/03/28 10:05:35;;;;;;;4.35;1.58;;;13.20;77.00;;;;;;4983494;28;20220;-74
2023/03/28 10:08:19;;;;;;;1.60;1.50;;;15.10;76.20;;;;;;4982225;28;20553;-74
2023/03/28 10:10:55;;;;;;;1.83;1.30;;;16.60;71.70;;;;;;5010538;28;20829;-74
2023/03/28 10:13:23;;;;;;;1.57;1.30;;;17.80;68.00;;;;;;5011942;28;20469;-74
2023/03/28 10:15:50;;;;;;;2.27;1.60;;;17.70;68.90;;;;;;4996521;28;20469;-74
2023/03/28 10:18:19;;;;;;;1.87;1.50;;;18.20;69.00;;;;;;5007969;28;20475;-73
2023/03/28 10:20:49;;;;;;;1.80;1.43;;;19.20;68.10;;;;;;5011321;28;20584;-74
2023/03/28 10:23:16;;;;;;;4.20;1.10;;;19.70;64.40;;;;;;5010969;28;20944;-75
2023/03/28 10:25:45;;;;;;;2.70;1.30;;;19.90;61.50;;;;;;5010234;28;20485;-74
2023/03/28 10:28:16;;;;;;;2.37;1.77;;;19.80;64.50;;;;;;5011508;28;20464;-74
2023/03/28 10:30:52;;;;;;;1.77;1.40;;;19.70;62.00;;;;;;5011644;28;20498;-74
2023/03/28 10:33:30;;;;;;;2.23;1.37;;;19.70;63.80;;;;;;5011614;28;20456;-74
2023/03/28 10:35:59;;;;;;;1.60;1.40;;;19.20;64.20;;;;;;5011101;28;20457;-75
2023/03/28 10:38:30;;;;;;;3.40;1.93;;;18.00;63.50;;;;;;5003677;28;20524;-74
2023/03/28 10:41:01;;;;;;;2.60;1.40;;;16.80;61.90;;;;;;5011052;28;20481;-74
2023/03/28 10:43:33;;;;;;;2.03;1.50;;;16.00;64.60;;;;;;5011298;28;20457;-74
2023/03/28 10:46:07;;;;;;;2.43;1.60;;;16.10;65.40;;;;;;5012315;28;20481;-74
2023/03/28 10:48:36;;;;;;;1.50;1.30;;;15.70;67.40;;;;;;5014179;28;20468;-73
2023/03/28 10:51:07;;;;;;;1.83;1.30;;;16.10;68.20;;;;;;5013089;28;20852;-73
2023/03/28 10:54:05;;;;;;;1.80;1.50;;;16.70;66.90;;;;;;5015727;28;20465;-74
2023/03/28 10:56:37;;;;;;;2.77;1.97;;;16.70;67.10;;;;;;5014510;28;20484;-74
2023/03/28 10:59:31;;;;;;;2.30;1.60;;;15.90;67.90;;;;;;5013888;28;20544;-73
2023/03/28 11:02:14;;;;;;;3.83;1.40;;;14.90;69.00;;;;;;5000335;28;20623;-74
2023/03/28 11:04:55;;;;;;;2.40;1.40;;;14.20;69.50;;;;;;5015456;28;20692;-74
2023/03/28 11:07:28;;;;;;;3.30;1.50;;;13.30;71.60;;;;;;5014525;28;20552;-73
2023/03/28 11:10:02;;;;;;;7.07;1.85;;;13.00;73.60;;;;;;5010849;28;20488;-73
2023/03/28 11:12:38;;;;;;;2.83;1.63;;;12.70;70.80;;;;;;5005841;28;20214;-74
2023/03/28 11:15:10;;;;;;;2.38;1.65;;;12.60;72.40;;;;;;5008593;28;20461;-73
2023/03/28 11:17:46;;;;;;;3.55;1.55;;;12.00;70.50;;;;;;5003826;28;20297;-73
2023/03/28 11:20:36;;;;;;;2.47;1.92;;;11.50;72.10;;;;;;5015041;28;20233;-74
2023/03/28 11:23:41;;;;;;;5.15;2.00;;;11.40;71.50;;;;;;5014391;28;20202;-73
2023/03/28 11:26:12;;;;;;;5.13;2.10;;;12.40;73.10;;;;;;4997039;28;20225;-74
2023/03/28 11:28:52;;;;;;;3.00;1.67;;;12.80;72.20;;;;;;5014146;28;20647;-72
2023/03/28 11:31:24;;;;;;;3.10;2.07;;;13.30;73.20;;;;;;5014752;28;20222;-72
2023/03/28 11:33:59;;;;;;;2.70;1.80;;;14.40;70.10;;;;;;5013220;28;20461;-72
2023/03/28 11:36:32;;;;;;;3.50;1.60;;;15.10;69.10;;;;;;5014402;28;20460;-72
2023/03/28 11:39:04;;;;;;;2.33;1.70;;;15.20;68.60;;;;;;5013689;28;20465;-71
2023/03/28 11:41:35;;;;;;;2.73;1.80;;;15.20;68.20;;;;;;5007943;28;20845;-73
2023/03/28 11:44:09;;;;;;;2.40;1.53;;;15.60;68.90;;;;;;5003481;28;20467;-73
2023/03/28 11:46:41;;;;;;;4.17;1.70;;;15.20;67.20;;;;;;5007557;28;20457;-76
2023/03/28 11:49:17;;;;;;;4.13;1.63;;;15.00;67.80;;;;;;5015015;28;20464;-75
2023/03/28 11:51:49;;;;;;;2.30;1.53;;;15.70;68.50;;;;;;5015289;28;20463;-75
2023/03/28 11:54:20;;;;;;;1.57;1.47;;;16.50;66.40;;;;;;5016054;28;20476;-76
2023/03/28 11:56:54;;;;;;;4.37;1.77;;;17.30;66.20;;;;;;5015272;28;20551;-76
2023/03/28 11:59:27;;;;;;;3.73;3.20;;;17.40;63.80;;;;;;5014777;28;20864;-76
2023/03/28 12:02:04;;;;;;;4.20;2.13;;;16.20;61.90;;;;;;5014490;28;20453;-76
2023/03/28 12:04:37;;;;;;;3.60;1.50;;;16.10;63.20;;;;;;5014740;28;20532;-76
2023/03/28 12:07:11;;;;;;;1.63;1.50;;;15.90;65.70;;;;;;5014552;28;20500;-76
2023/03/28 12:09:52;;;;;;;2.33;1.70;;;16.40;65.40;;;;;;5014576;28;20480;-74
2023/03/28 12:12:23;;;;;;;2.27;1.77;;;17.10;62.70;;;;;;5022356;28;20511;-75
2023/03/28 12:14:55;;;;;;;1.57;1.47;;;17.70;62.70;;;;;;5016704;28;20466;-76
2023/03/28 12:17:27;;;;;;;1.73;1.60;;;17.70;63.50;;;;;;5015336;28;20838;-76
2023/03/28 12:19:55;;;;;;;3.20;1.80;;;17.90;64.70;;;;;;5014496;28;20485;-76
2023/03/28 12:22:29;;;;;;;1.53;1.40;;;17.80;65.30;;;;;;5014965;28;20469;-76
2023/03/28 12:25:01;;;;;;;2.00;1.60;;;17.70;64.80;;;;;;5020296;28;20473;-73
2023/03/28 12:27:41;;;;;;;2.87;1.67;;;17.00;62.00;;;;;;5017324;28;21036;-73
2023/03/28 12:30:19;;;;;;;2.17;1.60;;;16.60;63.70;;;;;;5014423;28;20995;-72
2023/03/28 12:32:52;;;;;;;1.70;1.50;;;16.30;67.10;;;;;;5013788;28;20942;-71
2023/03/28 12:35:27;;;;;;;1.87;1.57;;;16.20;64.30;;;;;;5014436;28;20453;-73
2023/03/28 12:38:05;;;;;;;1.53;1.40;;;15.00;62.80;;;;;;5013243;28;20461;-72
2023/03/28 12:40:48;;;;;;;2.17;1.60;;;14.10;64.20;;;;;;5013386;28;20484;-73
2023/03/28 12:43:18;;;;;;;4.80;1.87;;;14.00;67.10;;;;;;5015203;28;20488;-71
2023/03/28 12:45:47;;;;;;;1.60;1.50;;;14.40;67.20;;;;;;5012443;28;20592;-73
2023/03/28 12:48:19;;;;;;;2.13;1.50;;;14.80;63.90;;;;;;5011498;28;20469;-73
2023/03/28 12:50:52;;;;;;;1.50;1.40;;;14.10;64.20;;;;;;5011707;28;20484;-73
2023/03/28 12:53:22;;;;;;;1.90;1.57;;;14.20;67.10;;;;;;5012044;28;20546;-72
2023/03/28 12:55:51;;;;;;;4.83;1.87;;;14.20;66.10;;;;;;5011819;28;20857;-73
2023/03/28 12:58:23;;;;;;;1.67;1.57;;;13.80;65.40;;;;;;5012481;28;20461;-72
2023/03/28 13:00:59;;;;;;;1.97;1.50;;;13.20;64.30;;;;;;5013617;28;20855;-72
2023/03/28 13:03:40;;;;;;;2.20;1.60;;;13.80;66.70;;;;;;5013228;28;20468;-72
2023/03/28 13:06:19;;;;;;;1.77;1.67;;;14.60;64.90;;;;;;5011177;28;20492;-71
2023/03/28 13:09:03;;;;;;;1.53;1.13;;;15.20;60.80;;;;;;5011175;28;20627;-71
2023/03/28 13:11:40;;;;;;;3.07;2.10;;;14.50;63.70;;;;;;5011500;28;20539;-70